Time;durP1;ratioP1;P1;durP2;ratioP2;P2;SDS_P1;SDS_P2;PMS_P1;PMS_P2;Temp;Humidity;BMP_temperature;BMP_pressure;BME280_temperature;BME280_humidity;BME280_pressure;Samples;Min_cycle;Max_cycle;Signal;HPM_P1;HPM_P2
2023/06/04 00:01:00;;;;;;;15.77;6.50;;;22.40;55.10;;;;;;8434524;28;19915;-54
2023/06/04 00:05:04;;;;;;;14.32;7.85;;;22.40;55.30;;;;;;8416087;28;20047;-53
2023/06/04 00:09:06;;;;;;;25.17;8.10;;;22.40;55.60;;;;;;8433533;28;20028;-55
2023/06/04 00:13:07;;;;;;;18.60;7.07;;;22.40;55.10;;;;;;8434116;28;20738;-56
2023/06/04 00:17:10;;;;;;;14.00;6.90;;;22.30;55.10;;;;;;8434865;28;21220;-56
2023/06/04 00:21:12;;;;;;;16.42;6.57;;;22.30;55.10;;;;;;8432247;28;20032;-55
2023/06/04 00:25:13;;;;;;;14.15;7.30;;;22.30;55.00;;;;;;8433241;28;20024;-54
2023/06/04 00:29:15;;;;;;;15.82;7.15;;;22.40;54.80;;;;;;8432323;28;20028;-54
2023/06/04 00:33:17;;;;;;;13.80;6.53;;;22.30;54.90;;;;;;8432979;28;20477;-55
2023/06/04 00:37:18;;;;;;;11.02;6.93;;;22.30;54.90;;;;;;8432028;28;20398;-54
2023/06/04 00:41:20;;;;;;;17.70;6.50;;;22.30;55.10;;;;;;8430859;28;20024;-53
2023/06/04 00:45:25;;;;;;;17.92;7.22;;;22.30;55.10;;;;;;8433240;28;20023;-55
2023/06/04 00:49:26;;;;;;;18.50;6.63;;;22.30;55.00;;;;;;8432637;28;20059;-55
2023/06/04 00:53:28;;;;;;;16.73;7.72;;;22.30;55.20;;;;;;8431858;28;20032;-55
2023/06/04 00:57:30;;;;;;;16.13;6.40;;;22.30;55.20;;;;;;8432218;28;20023;-55
2023/06/04 01:01:47;;;;;;;15.77;6.63;;;22.30;55.40;;;;;;8431963;28;20028;-54
2023/06/04 01:06:02;;;;;;;15.50;5.75;;;22.30;55.30;;;;;;8446455;28;20386;-54
2023/06/04 01:10:06;;;;;;;12.23;6.45;;;22.30;55.20;;;;;;8459193;28;20493;-54
2023/06/04 01:14:08;;;;;;;15.27;6.07;;;22.30;55.10;;;;;;8430787;28;20032;-54
2023/06/04 01:18:29;;;;;;;12.15;5.68;;;22.20;55.10;;;;;;8432991;28;20027;-54
2023/06/04 01:22:47;;;;;;;11.68;5.97;;;22.10;55.10;;;;;;8431046;28;20074;-55
2023/06/04 01:26:49;;;;;;;13.35;5.90;;;22.10;55.20;;;;;;8431589;28;20115;-55
2023/06/04 01:30:50;;;;;;;13.85;5.95;;;22.10;55.10;;;;;;8429657;28;20063;-55
2023/06/04 01:34:51;;;;;;;11.13;4.93;;;22.10;55.10;;;;;;8430932;28;20515;-54
2023/06/04 01:38:52;;;;;;;11.10;6.22;;;22.00;55.60;;;;;;8430684;28;20435;-55
2023/06/04 01:42:53;;;;;;;9.45;5.53;;;22.00;55.10;;;;;;8460588;28;20024;-54
2023/06/04 01:46:54;;;;;;;12.65;5.80;;;22.00;55.10;;;;;;8464782;28;20020;-55
2023/06/04 01:50:55;;;;;;;16.02;6.20;;;22.00;55.00;;;;;;8463216;28;20523;-54
2023/06/04 01:54:55;;;;;;;9.40;5.40;;;22.00;55.00;;;;;;8446191;28;20035;-54
2023/06/04 01:58:56;;;;;;;10.43;4.97;;;22.00;55.00;;;;;;8463047;28;20370;-55
2023/06/04 02:02:57;;;;;;;13.13;5.40;;;22.00;55.00;;;;;;8464189;28;20030;-55
2023/06/04 02:06:59;;;;;;;7.70;4.40;;;21.90;54.90;;;;;;8462820;28;20485;-54
2023/06/04 02:11:00;;;;;;;11.93;5.47;;;21.90;54.90;;;;;;8449397;28;20107;-54
2023/06/04 02:15:00;;;;;;;8.57;5.45;;;21.90;54.90;;;;;;8429339;28;20028;-54
2023/06/04 02:19:03;;;;;;;7.80;5.00;;;21.90;54.90;;;;;;8429287;28;20040;-55
2023/06/04 02:23:03;;;;;;;8.10;4.72;;;21.90;54.90;;;;;;8429788;28;20020;-55
2023/06/04 02:27:06;;;;;;;8.32;4.93;;;21.90;54.90;;;;;;8428472;28;20032;-55
2023/06/04 02:31:07;;;;;;;8.93;4.65;;;21.90;54.90;;;;;;8428415;28;20032;-52
2023/06/04 02:35:08;;;;;;;9.02;4.90;;;21.90;54.90;;;;;;8427012;28;20035;-52
2023/06/04 02:39:08;;;;;;;9.88;5.22;;;21.90;54.90;;;;;;8427248;28;20126;-54
2023/06/04 02:43:09;;;;;;;10.05;4.72;;;21.80;54.80;;;;;;8426990;28;20028;-54
2023/06/04 02:47:09;;;;;;;8.55;5.30;;;21.90;54.90;;;;;;8429259;28;20059;-54
2023/06/04 02:51:10;;;;;;;9.80;4.82;;;21.90;54.90;;;;;;8428716;28;20424;-54
2023/06/04 02:55:12;;;;;;;10.88;5.75;;;21.90;54.90;;;;;;8428393;28;20036;-54
2023/06/04 02:59:13;;;;;;;8.05;5.38;;;21.80;54.80;;;;;;8410558;28;20031;-54
2023/06/04 03:03:15;;;;;;;9.02;5.07;;;21.80;54.80;;;;;;8428816;28;20028;-55
2023/06/04 03:07:19;;;;;;;;;;;21.80;54.80;;;;;;8429520;28;20090;-54
2023/06/04 03:11:23;;;;;;;10.25;5.15;;;21.80;54.80;;;;;;8427828;28;19908;-55
2023/06/04 03:15:23;;;;;;;7.07;4.65;;;21.80;54.80;;;;;;8428636;28;20157;-54
2023/06/04 03:19:24;;;;;;;8.52;4.60;;;21.80;54.80;;;;;;8409659;28;20024;-54
2023/06/04 03:23:25;;;;;;;9.45;5.15;;;21.80;54.80;;;;;;8428393;28;20053;-54
2023/06/04 03:27:26;;;;;;;8.13;5.18;;;21.80;54.80;;;;;;8427502;28;20055;-55
2023/06/04 03:31:27;;;;;;;10.80;4.25;;;21.80;54.80;;;;;;8429375;28;20469;-55
2023/06/04 03:35:28;;;;;;;;;;;21.80;54.90;;;;;;8428227;28;20059;-54
2023/06/04 03:39:28;;;;;;;6.60;4.37;;;21.80;54.80;;;;;;8428345;28;19911;-55
2023/06/04 03:43:29;;;;;;;6.95;4.93;;;21.80;54.80;;;;;;8428158;28;20029;-55
2023/06/04 03:47:30;;;;;;;7.63;4.75;;;21.80;54.80;;;;;;8427299;28;20028;-55
2023/06/04 03:51:30;;;;;;;6.82;4.00;;;21.80;54.80;;;;;;8428248;28;20024;-55
2023/06/04 03:55:34;;;;;;;9.43;4.63;;;21.80;54.80;;;;;;8430879;28;20020;-54
2023/06/04 03:59:35;;;;;;;7.22;4.40;;;21.80;54.80;;;;;;8434436;28;20032;-54
2023/06/04 04:03:35;;;;;;;9.73;5.30;;;21.80;54.80;;;;;;8432862;28;20073;-54
2023/06/04 04:07:36;;;;;;;6.45;4.45;;;21.80;54.80;;;;;;8434298;28;20101;-55
2023/06/04 04:11:37;;;;;;;6.05;4.20;;;21.80;54.80;;;;;;8433474;28;20501;-54
2023/06/04 04:15:37;;;;;;;8.35;4.78;;;21.70;54.70;;;;;;8433280;28;20032;-54
2023/06/04 04:19:38;;;;;;;7.95;4.32;;;21.80;54.80;;;;;;8432986;28;20027;-55
2023/06/04 04:23:42;;;;;;;7.25;3.90;;;21.80;54.80;;;;;;8432732;28;20035;-54
2023/06/04 04:27:42;;;;;;;6.85;4.38;;;21.80;54.80;;;;;;8433565;28;20047;-54
2023/06/04 04:31:43;;;;;;;6.72;4.22;;;21.70;54.80;;;;;;8431977;28;20031;-54
2023/06/04 04:35:44;;;;;;;6.80;4.20;;;21.80;54.80;;;;;;8432950;28;20032;-54
2023/06/04 04:39:45;;;;;;;;;;;21.70;54.80;;;;;;8432605;28;20385;-55
2023/06/04 04:43:46;;;;;;;6.17;3.67;;;21.70;54.80;;;;;;8432978;28;19926;-55
2023/06/04 04:47:46;;;;;;;6.32;3.88;;;21.80;54.60;;;;;;8431590;28;20105;-53
2023/06/04 04:51:47;;;;;;;5.57;4.05;;;21.80;54.50;;;;;;8432835;28;20381;-55
2023/06/04 04:55:48;;;;;;;5.50;3.95;;;21.80;54.50;;;;;;8431718;28;20527;-54
2023/06/04 04:59:49;;;;;;;6.68;4.72;;;21.80;54.50;;;;;;8431819;28;20035;-54
2023/06/04 05:03:50;;;;;;;5.50;3.58;;;21.90;54.50;;;;;;8431993;28;20028;-53
2023/06/04 05:07:50;;;;;;;6.43;4.45;;;21.80;54.50;;;;;;8431209;28;20048;-55
2023/06/04 05:11:51;;;;;;;5.90;3.88;;;21.80;54.60;;;;;;8432097;28;20520;-54
2023/06/04 05:15:52;;;;;;;5.95;4.00;;;21.80;54.50;;;;;;8430671;28;20074;-54
2023/06/04 05:19:53;;;;;;;7.22;3.88;;;21.80;54.50;;;;;;8431782;28;20500;-55
2023/06/04 05:23:53;;;;;;;5.97;4.13;;;21.80;54.50;;;;;;8430393;28;20024;-54
2023/06/04 05:27:56;;;;;;;6.10;4.63;;;21.80;54.60;;;;;;8431661;28;20032;-53
2023/06/04 05:31:56;;;;;;;6.93;4.05;;;21.80;54.50;;;;;;8430036;28;20035;-54
2023/06/04 05:35:58;;;;;;;5.40;3.95;;;21.80;54.50;;;;;;8431371;28;20064;-55
2023/06/04 05:39:59;;;;;;;4.90;3.80;;;21.80;54.50;;;;;;8430797;28;20036;-54
2023/06/04 05:44:00;;;;;;;5.90;3.40;;;21.80;54.50;;;;;;8430262;28;20473;-54
2023/06/04 05:48:01;;;;;;;5.50;3.55;;;21.80;54.50;;;;;;8431462;28;20401;-54
2023/06/04 05:52:01;;;;;;;6.72;4.75;;;21.80;54.50;;;;;;8429375;28;20064;-54
2023/06/04 05:56:02;;;;;;;4.53;3.22;;;21.70;54.50;;;;;;8430422;28;20068;-54
2023/06/04 06:00:08;;;;;;;6.65;4.03;;;21.70;54.50;;;;;;8429490;28;20091;-54
2023/06/04 06:04:10;;;;;;;5.32;3.45;;;21.70;54.50;;;;;;8430491;28;20020;-54
2023/06/04 06:08:11;;;;;;;5.13;3.65;;;21.70;54.50;;;;;;8429207;28;20040;-55
2023/06/04 06:12:11;;;;;;;5.13;3.17;;;21.80;54.60;;;;;;8430627;28;20042;-53
2023/06/04 06:16:12;;;;;;;5.65;3.47;;;21.70;54.60;;;;;;8428451;28;20032;-54
2023/06/04 06:20:17;;;;;;;4.95;3.33;;;21.70;54.60;;;;;;8430347;28;20028;-53
2023/06/04 06:24:17;;;;;;;5.72;3.83;;;21.70;54.60;;;;;;8429117;28;20032;-53
2023/06/04 06:28:18;;;;;;;5.53;4.07;;;21.70;54.50;;;;;;8429698;28;20120;-54
2023/06/04 06:32:19;;;;;;;5.68;3.45;;;21.70;54.50;;;;;;8429732;28;20035;-55
2023/06/04 06:36:20;;;;;;;5.30;3.75;;;21.70;54.50;;;;;;8428323;28;20048;-54
2023/06/04 06:40:20;;;;;;;5.05;3.72;;;21.70;54.50;;;;;;8429558;28;20493;-54
2023/06/04 06:44:21;;;;;;;4.60;3.10;;;21.70;54.50;;;;;;8428129;28;20473;-53
2023/06/04 06:48:22;;;;;;;5.13;3.63;;;21.70;54.50;;;;;;8444779;28;20662;-54
2023/06/04 06:52:22;;;;;;;4.60;3.38;;;21.70;54.50;;;;;;8427878;28;20031;-54
2023/06/04 06:56:23;;;;;;;4.80;3.50;;;21.70;54.50;;;;;;8428836;28;20162;-54
2023/06/04 07:00:24;;;;;;;5.03;3.15;;;21.70;54.50;;;;;;8427972;28;20023;-54
2023/06/04 07:04:25;;;;;;;5.13;3.80;;;21.70;54.50;;;;;;8427849;28;20048;-55
2023/06/04 07:08:26;;;;;;;5.53;3.33;;;21.70;54.60;;;;;;8428358;28;20062;-54
2023/06/04 07:12:27;;;;;;;4.75;3.03;;;21.70;54.50;;;;;;8427869;28;20036;-54
2023/06/04 07:16:28;;;;;;;5.82;3.35;;;21.70;54.50;;;;;;8428352;28;20079;-54
2023/06/04 07:20:30;;;;;;;;;;;21.70;54.60;;;;;;8427744;28;20043;-53
2023/06/04 07:24:31;;;;;;;3.92;2.92;;;21.70;54.60;;;;;;8428228;28;20011;-54
2023/06/04 07:28:32;;;;;;;5.57;3.55;;;21.70;54.60;;;;;;8428219;28;20050;-54
2023/06/04 07:32:32;;;;;;;3.65;3.13;;;21.70;54.60;;;;;;8435696;28;20369;-54
2023/06/04 07:36:33;;;;;;;4.20;3.15;;;21.70;54.60;;;;;;8433553;28;20067;-55
2023/06/04 07:40:34;;;;;;;5.82;3.50;;;21.70;54.70;;;;;;8416922;28;20032;-54
2023/06/04 07:44:36;;;;;;;4.47;3.17;;;21.60;54.60;;;;;;8434187;28;20040;-54
2023/06/04 07:48:37;;;;;;;4.65;3.45;;;21.70;54.70;;;;;;8433829;28;20035;-53
2023/06/04 07:52:37;;;;;;;4.95;3.25;;;21.70;54.70;;;;;;8434593;28;20036;-53
2023/06/04 07:56:38;;;;;;;4.93;3.63;;;21.60;54.60;;;;;;8415096;28;20063;-54
2023/06/04 08:00:38;;;;;;;4.25;2.90;;;21.60;54.60;;;;;;8434249;28;20111;-54
2023/06/04 08:04:39;;;;;;;4.82;3.08;;;21.70;54.60;;;;;;8432298;28;20048;-55
2023/06/04 08:08:45;;;;;;;4.18;2.83;;;21.70;54.70;;;;;;8434466;28;20042;-54
2023/06/04 08:12:46;;;;;;;3.80;3.13;;;21.70;54.60;;;;;;8432943;28;20111;-54
2023/06/04 08:16:46;;;;;;;4.55;2.85;;;21.70;54.60;;;;;;8433786;28;20077;-54
2023/06/04 08:20:47;;;;;;;3.58;2.97;;;21.70;54.60;;;;;;8432652;28;20028;-54
2023/06/04 08:24:48;;;;;;;3.33;2.50;;;21.70;54.70;;;;;;8434301;28;20074;-54
2023/06/04 08:28:49;;;;;;;3.95;3.13;;;21.70;54.60;;;;;;8432511;28;20050;-55
2023/06/04 08:32:50;;;;;;;;;;;21.70;54.60;;;;;;8433256;28;20028;-54
2023/06/04 08:36:50;;;;;;;4.43;3.03;;;21.60;54.60;;;;;;8433198;28;19911;-55
2023/06/04 08:40:55;;;;;;;3.70;2.80;;;21.70;54.60;;;;;;8431872;28;20281;-54
2023/06/04 08:44:57;;;;;;;3.67;2.72;;;21.70;54.60;;;;;;8432648;28;20028;-54
2023/06/04 08:49:03;;;;;;;4.45;2.65;;;21.70;54.60;;;;;;8431691;28;20020;-54
2023/06/04 08:53:04;;;;;;;3.85;2.80;;;21.70;54.70;;;;;;8433062;28;20020;-54
2023/06/04 08:57:05;;;;;;;4.30;3.10;;;21.60;54.60;;;;;;8431207;28;20496;-55
2023/06/04 09:01:07;;;;;;;4.50;2.80;;;21.60;54.60;;;;;;8432403;28;20032;-54
2023/06/04 09:05:10;;;;;;;2.85;2.55;;;21.70;54.60;;;;;;8431930;28;20052;-54
2023/06/04 09:09:15;;;;;;;4.07;2.90;;;21.60;54.60;;;;;;8431341;28;20111;-54
2023/06/04 09:13:17;;;;;;;3.92;2.90;;;21.60;54.60;;;;;;8432220;28;20154;-54
2023/06/04 09:17:23;;;;;;;3.13;2.72;;;21.60;54.60;;;;;;8430765;28;20040;-54
2023/06/04 09:21:24;;;;;;;4.22;3.10;;;21.60;54.60;;;;;;8431979;28;20382;-54
2023/06/04 09:25:26;;;;;;;4.32;3.22;;;21.60;54.60;;;;;;8430501;28;20106;-54
2023/06/04 09:29:27;;;;;;;5.50;2.88;;;21.60;54.60;;;;;;8431260;28;20545;-54
2023/06/04 09:33:28;;;;;;;4.00;3.00;;;21.60;54.60;;;;;;8430384;28;20435;-55
2023/06/04 09:37:29;;;;;;;4.03;2.88;;;21.60;54.60;;;;;;8431060;28;20044;-53
2023/06/04 09:41:29;;;;;;;4.28;2.83;;;21.60;54.60;;;;;;8430853;28;20032;-54
2023/06/04 09:45:32;;;;;;;4.03;2.80;;;21.60;54.60;;;;;;8430265;28;20547;-55
2023/06/04 09:49:43;;;;;;;3.80;2.85;;;21.60;54.60;;;;;;8412590;28;20034;-55
2023/06/04 09:53:52;;;;;;;;;;;21.60;54.60;;;;;;8428883;28;20040;-54
2023/06/04 09:57:53;;;;;;;3.75;2.50;;;21.60;54.60;;;;;;8430895;28;19904;-53
2023/06/04 10:01:55;;;;;;;3.42;2.63;;;21.60;54.50;;;;;;8411251;28;20032;-54
2023/06/04 10:05:57;;;;;;;3.10;2.47;;;21.60;54.50;;;;;;8430373;28;20040;-54
2023/06/04 10:09:58;;;;;;;3.80;2.60;;;21.60;54.50;;;;;;8429812;28;20016;-54
2023/06/04 10:14:17;;;;;;;3.35;2.63;;;21.60;54.50;;;;;;8429235;28;20035;-55
2023/06/04 10:18:19;;;;;;;4.07;3.13;;;21.60;54.50;;;;;;8429957;28;20054;-54
2023/06/04 10:22:23;;;;;;;3.90;3.10;;;21.70;54.50;;;;;;8428786;28;20370;-54
2023/06/04 10:26:25;;;;;;;3.88;2.95;;;21.60;54.50;;;;;;8428712;28;20519;-54
2023/06/04 10:30:26;;;;;;;3.38;2.55;;;21.60;54.50;;;;;;8427236;28;20032;-53
2023/06/04 10:34:27;;;;;;;4.88;2.40;;;21.60;54.50;;;;;;8427338;28;20103;-53
2023/06/04 10:38:30;;;;;;;2.70;2.42;;;21.60;54.50;;;;;;8427432;28;20086;-53
2023/06/04 10:42:39;;;;;;;4.13;2.85;;;21.60;54.50;;;;;;8428868;28;20032;-54
2023/06/04 10:46:41;;;;;;;3.65;2.70;;;21.60;54.50;;;;;;8429578;28;20034;-53
2023/06/04 10:50:52;;;;;;;3.00;2.47;;;21.60;54.50;;;;;;8428133;28;20024;-54
2023/06/04 10:55:06;;;;;;;3.97;2.70;;;21.60;54.50;;;;;;8420771;28;20077;-54
2023/06/04 10:59:14;;;;;;;2.92;2.60;;;21.60;54.50;;;;;;8428132;28;20024;-53
2023/06/04 11:03:15;;;;;;;3.50;2.60;;;21.60;54.50;;;;;;8427765;28;20025;-54
2023/06/04 11:07:16;;;;;;;3.40;2.50;;;21.60;54.50;;;;;;8428122;28;20127;-52
2023/06/04 11:11:17;;;;;;;3.80;2.63;;;21.60;54.50;;;;;;8429296;28;20153;-54
2023/06/04 11:15:17;;;;;;;2.63;2.20;;;21.60;55.00;;;;;;8428276;28;20082;-54
2023/06/04 11:19:18;;;;;;;3.22;2.40;;;21.60;54.40;;;;;;8427666;28;20036;-54
2023/06/04 11:23:19;;;;;;;2.80;2.45;;;21.60;54.40;;;;;;8428440;28;20047;-54
2023/06/04 11:27:20;;;;;;;3.38;2.60;;;21.60;54.40;;;;;;8427184;28;20028;-55
2023/06/04 11:31:21;;;;;;;2.65;2.13;;;21.60;54.50;;;;;;8428251;28;20081;-54
2023/06/04 11:35:21;;;;;;;;;;;21.60;54.50;;;;;;8427537;28;20035;-54
2023/06/04 11:39:22;;;;;;;3.77;2.43;;;21.60;54.40;;;;;;8428751;28;19904;-54
2023/06/04 11:43:23;;;;;;;2.85;2.53;;;21.60;54.40;;;;;;8427743;28;20031;-53
2023/06/04 11:47:25;;;;;;;2.83;2.42;;;21.60;54.40;;;;;;8427603;28;20052;-54
2023/06/04 11:51:25;;;;;;;;;;;21.60;54.30;;;;;;8428076;28;20059;-54
2023/06/04 11:55:26;;;;;;;3.83;2.50;;;21.70;54.40;;;;;;8428287;28;20281;-54
2023/06/04 11:59:27;;;;;;;3.05;2.40;;;21.70;54.40;;;;;;8427577;28;20266;-54
2023/06/04 12:03:38;;;;;;;3.03;2.40;;;21.70;54.40;;;;;;8427081;28;20089;-54
2023/06/04 12:07:39;;;;;;;;;;;21.70;54.40;;;;;;8427948;28;20043;-54
2023/06/04 12:11:41;;;;;;;3.17;2.30;;;21.70;54.40;;;;;;8427135;28;20003;-54
2023/06/04 12:15:42;;;;;;;2.92;2.30;;;21.60;54.30;;;;;;8430029;28;20542;-54
2023/06/04 12:19:50;;;;;;;2.88;2.50;;;21.70;54.90;;;;;;8433194;28;20599;-54
2023/06/04 12:23:51;;;;;;;2.28;1.95;;;21.60;54.30;;;;;;8432878;28;20020;-54
2023/06/04 12:27:51;;;;;;;2.58;1.83;;;21.70;54.40;;;;;;8433114;28;20028;-55
2023/06/04 12:32:05;;;;;;;2.40;2.10;;;21.60;54.30;;;;;;8432140;28;20035;-55
2023/06/04 12:36:05;;;;;;;4.53;2.28;;;21.60;54.30;;;;;;8433312;28;20440;-54
2023/06/04 12:40:07;;;;;;;2.50;2.20;;;21.60;54.30;;;;;;8413918;28;20419;-54
2023/06/04 12:44:07;;;;;;;;;;;21.60;54.30;;;;;;8433471;28;20036;-54
2023/06/04 12:48:08;;;;;;;3.90;2.43;;;21.70;54.30;;;;;;8431686;28;20362;-54
2023/06/04 12:52:08;;;;;;;2.83;2.40;;;21.70;54.30;;;;;;8432411;28;20054;-54
2023/06/04 12:56:10;;;;;;;3.22;2.30;;;21.70;54.30;;;;;;8432003;28;20028;-54
2023/06/04 13:00:11;;;;;;;3.53;2.30;;;21.60;54.30;;;;;;8431908;28;20020;-53
2023/06/04 13:04:12;;;;;;;2.55;2.10;;;21.70;54.30;;;;;;8432259;28;20105;-54
2023/06/04 13:08:13;;;;;;;3.03;2.40;;;21.60;54.20;;;;;;8446860;28;20049;-54
2023/06/04 13:12:14;;;;;;;2.85;2.03;;;21.70;54.30;;;;;;8432263;28;20055;-54
2023/06/04 13:16:15;;;;;;;2.03;1.80;;;21.60;54.20;;;;;;8430715;28;20081;-54
2023/06/04 13:20:15;;;;;;;3.03;2.28;;;21.70;54.30;;;;;;8431714;28;20397;-54
2023/06/04 13:24:16;;;;;;;3.08;2.40;;;21.60;54.20;;;;;;8430245;28;20028;-54
2023/06/04 13:28:17;;;;;;;4.15;2.20;;;21.70;54.30;;;;;;8431524;28;20431;-53
2023/06/04 13:32:18;;;;;;;2.30;1.90;;;21.60;54.20;;;;;;8430240;28;20580;-55
2023/06/04 13:36:19;;;;;;;2.72;2.05;;;21.70;54.30;;;;;;8431212;28;20362;-54
2023/06/04 13:40:19;;;;;;;2.17;1.92;;;21.70;54.20;;;;;;8431230;28;20078;-55
2023/06/04 13:44:25;;;;;;;2.25;2.00;;;21.70;54.20;;;;;;8430187;28;20039;-54
2023/06/04 13:48:26;;;;;;;2.65;2.13;;;21.60;54.20;;;;;;8430865;28;20028;-55
2023/06/04 13:52:28;;;;;;;2.15;1.95;;;21.70;54.20;;;;;;8429734;28;20486;-54
2023/06/04 13:56:29;;;;;;;3.42;2.42;;;21.70;54.30;;;;;;8430640;28;20049;-55
2023/06/04 14:00:30;;;;;;;1.98;1.77;;;21.70;54.20;;;;;;8429713;28;20063;-54
2023/06/04 14:04:31;;;;;;;;;;;21.70;54.20;;;;;;8430752;28;20056;-55
2023/06/04 14:08:32;;;;;;;2.30;1.90;;;21.70;54.20;;;;;;8429328;28;19908;-54
2023/06/04 14:12:33;;;;;;;2.30;2.10;;;21.60;54.10;;;;;;8430589;28;20085;-54
2023/06/04 14:16:33;;;;;;;2.17;1.90;;;21.70;54.20;;;;;;8429591;28;20477;-53
2023/06/04 14:20:34;;;;;;;2.40;2.20;;;21.70;54.20;;;;;;8429174;28;20020;-54
2023/06/04 14:24:35;;;;;;;2.45;1.95;;;21.70;54.20;;;;;;8429325;28;20110;-54
2023/06/04 14:28:35;;;;;;;2.53;1.83;;;21.60;54.20;;;;;;8429123;28;20040;-54
2023/06/04 14:32:36;;;;;;;2.70;1.88;;;21.70;54.20;;;;;;8429762;28;20093;-54
2023/06/04 14:36:37;;;;;;;;;;;21.70;54.20;;;;;;8428563;28;20557;-54
2023/06/04 14:40:38;;;;;;;2.40;1.83;;;21.70;54.20;;;;;;8445171;28;20090;-53
2023/06/04 14:44:38;;;;;;;2.88;2.10;;;21.70;54.20;;;;;;8427902;28;20028;-54
2023/06/04 14:48:39;;;;;;;2.85;1.88;;;21.70;54.10;;;;;;8429729;28;20574;-54
2023/06/04 14:52:40;;;;;;;2.03;1.67;;;21.60;54.10;;;;;;8409925;28;20040;-54
2023/06/04 14:56:40;;;;;;;3.55;2.05;;;21.70;54.10;;;;;;8444301;28;20028;-54
2023/06/04 15:00:45;;;;;;;2.50;2.30;;;21.60;54.60;;;;;;8428552;28;20063;-54
2023/06/04 15:04:46;;;;;;;2.45;2.00;;;21.70;54.10;;;;;;8428346;28;20076;-54
2023/06/04 15:08:47;;;;;;;2.25;2.05;;;21.70;54.60;;;;;;8428827;28;20032;-53
2023/06/04 15:12:47;;;;;;;2.20;1.95;;;21.70;54.10;;;;;;8427249;28;20036;-53
2023/06/04 15:16:48;;;;;;;2.35;1.95;;;21.70;54.10;;;;;;8428651;28;20389;-54
2023/06/04 15:20:49;;;;;;;2.38;2.10;;;21.70;54.10;;;;;;8427613;28;20450;-54
2023/06/04 15:24:49;;;;;;;2.60;2.15;;;21.70;54.10;;;;;;8428402;28;20481;-54
2023/06/04 15:28:50;;;;;;;2.38;2.00;;;21.70;54.10;;;;;;8427259;28;20101;-53
2023/06/04 15:32:51;;;;;;;3.20;2.03;;;21.70;54.10;;;;;;8428076;28;20078;-54
2023/06/04 15:36:52;;;;;;;2.03;1.75;;;21.70;54.10;;;;;;8427146;28;20032;-54
2023/06/04 15:40:53;;;;;;;2.30;2.08;;;21.70;54.10;;;;;;8428681;28;20060;-54
2023/06/04 15:44:53;;;;;;;2.95;1.77;;;21.70;54.10;;;;;;8427688;28;20035;-54
2023/06/04 15:48:54;;;;;;;5.32;3.55;;;21.70;54.10;;;;;;8427416;28;20085;-54
2023/06/04 15:52:55;;;;;;;2.92;2.10;;;21.70;54.20;;;;;;8434225;28;20039;-54
2023/06/04 15:56:55;;;;;;;2.40;1.83;;;21.60;54.10;;;;;;8433357;28;20042;-54
2023/06/04 16:00:56;;;;;;;1.98;1.77;;;21.60;54.10;;;;;;8434297;28;20115;-53
2023/06/04 16:04:56;;;;;;;2.30;2.10;;;21.70;54.20;;;;;;8425091;28;20075;-54
2023/06/04 16:08:57;;;;;;;3.38;2.17;;;21.60;54.10;;;;;;8400165;28;20029;-53
2023/06/04 16:12:58;;;;;;;2.90;2.05;;;21.70;54.20;;;;;;8400063;28;20032;-54
2023/06/04 16:16:58;;;;;;;2.55;2.13;;;21.70;54.10;;;;;;8400357;28;20036;-54
2023/06/04 16:21:00;;;;;;;2.20;2.00;;;21.70;54.20;;;;;;8399166;28;20078;-54
2023/06/04 16:25:00;;;;;;;2.15;1.88;;;21.70;54.20;;;;;;8399647;28;20024;-53
2023/06/04 16:29:01;;;;;;;2.00;1.58;;;21.70;54.20;;;;;;8399431;28;20107;-54
2023/06/04 16:33:02;;;;;;;2.63;2.00;;;21.70;54.10;;;;;;8399145;28;20025;-54
2023/06/04 16:37:02;;;;;;;2.10;1.90;;;21.70;54.20;;;;;;8399767;28;20038;-53
2023/06/04 16:41:03;;;;;;;2.50;1.98;;;21.70;54.10;;;;;;8399774;28;20016;-53
2023/06/04 16:45:05;;;;;;;1.85;1.58;;;21.70;54.20;;;;;;8399365;28;20032;-54
2023/06/04 16:49:05;;;;;;;;;;;21.70;54.10;;;;;;8398883;28;20398;-54
2023/06/04 16:53:06;;;;;;;1.67;1.57;;;21.70;54.20;;;;;;8399153;28;19931;-54
2023/06/04 16:57:08;;;;;;;;;;;21.70;54.10;;;;;;8398409;28;20078;-52
2023/06/04 17:01:09;;;;;;;2.08;1.75;;;21.60;54.10;;;;;;8398642;28;19904;-54
2023/06/04 17:05:11;;;;;;;;;;;21.70;54.10;;;;;;8389822;28;20056;-55
2023/06/04 17:09:12;;;;;;;2.50;1.77;;;21.60;54.10;;;;;;8432483;28;19916;-54
2023/06/04 17:13:13;;;;;;;2.72;2.00;;;21.70;54.20;;;;;;8431642;28;20093;-54
2023/06/04 17:17:13;;;;;;;2.00;1.77;;;21.70;54.10;;;;;;8431259;28;20039;-54
2023/06/04 17:21:16;;;;;;;1.98;1.70;;;21.60;54.10;;;;;;8431970;28;20400;-54
2023/06/04 17:25:17;;;;;;;1.85;1.67;;;21.60;54.10;;;;;;8446360;28;20141;-53
2023/06/04 17:29:18;;;;;;;2.03;1.80;;;21.60;54.20;;;;;;8431190;28;20054;-55
2023/06/04 17:33:18;;;;;;;2.28;1.70;;;21.70;54.20;;;;;;8430454;28;20381;-54
2023/06/04 17:37:19;;;;;;;2.13;1.90;;;21.70;54.20;;;;;;8431169;28;20044;-53
2023/06/04 17:41:20;;;;;;;2.20;2.00;;;21.60;54.20;;;;;;8430093;28;20032;-54
2023/06/04 17:45:20;;;;;;;2.47;1.65;;;21.60;54.20;;;;;;8431001;28;20371;-53
2023/06/04 17:49:21;;;;;;;2.38;1.80;;;21.70;54.20;;;;;;8429778;28;20032;-54
2023/06/04 17:53:23;;;;;;;2.58;1.70;;;21.70;54.20;;;;;;8430563;28;20028;-54
2023/06/04 17:57:23;;;;;;;2.08;1.70;;;21.60;54.10;;;;;;8445529;28;20059;-54
2023/06/04 18:01:24;;;;;;;2.53;1.98;;;21.60;54.10;;;;;;8429775;28;20024;-54
2023/06/04 18:05:25;;;;;;;2.92;2.00;;;21.60;54.10;;;;;;8430158;28;20052;-54
2023/06/04 18:09:26;;;;;;;1.77;1.60;;;21.70;54.10;;;;;;8428979;28;20066;-54
2023/06/04 18:13:26;;;;;;;2.35;2.00;;;21.70;54.10;;;;;;8429731;28;20111;-54
2023/06/04 18:17:27;;;;;;;2.42;1.77;;;21.60;54.10;;;;;;8444449;28;20439;-54
2023/06/04 18:21:28;;;;;;;3.40;1.50;;;21.70;54.10;;;;;;8428925;28;20107;-52
2023/06/04 18:25:28;;;;;;;1.70;1.42;;;21.70;54.10;;;;;;8427540;28;20529;-53
2023/06/04 18:29:29;;;;;;;1.75;1.63;;;21.60;54.10;;;;;;8427655;28;20032;-54
2023/06/04 18:33:30;;;;;;;1.67;1.40;;;21.70;54.10;;;;;;8427633;28;20070;-54
2023/06/04 18:37:30;;;;;;;1.55;1.40;;;21.60;54.10;;;;;;8429744;28;20036;-54
2023/06/04 18:41:31;;;;;;;2.22;1.50;;;21.70;54.10;;;;;;8429392;28;20032;-54
2023/06/04 18:45:32;;;;;;;1.98;1.60;;;21.70;54.10;;;;;;8428579;28;20040;-54
2023/06/04 18:49:32;;;;;;;6.97;1.73;;;21.70;54.10;;;;;;8425035;28;20164;-54
2023/06/04 18:53:33;;;;;;;4.18;1.60;;;21.70;54.70;;;;;;8427053;28;20044;-54
2023/06/04 18:57:37;;;;;;;2.17;1.70;;;21.70;54.60;;;;;;8414800;28;20422;-54
2023/06/04 19:01:37;;;;;;;2.95;1.80;;;21.70;55.30;;;;;;8425437;28;20103;-53
2023/06/04 19:05:38;;;;;;;3.78;1.75;;;21.80;55.50;;;;;;8427977;28;20060;-52
2023/06/04 19:09:39;;;;;;;3.30;1.73;;;21.80;55.20;;;;;;8426977;28;20138;-55
2023/06/04 19:13:40;;;;;;;3.13;1.83;;;21.80;55.10;;;;;;8425827;28;20040;-54
2023/06/04 19:17:40;;;;;;;5.13;1.92;;;21.90;55.40;;;;;;8426658;28;20071;-53
2023/06/04 19:21:41;;;;;;;2.30;1.60;;;21.90;55.00;;;;;;8425657;28;20036;-54
2023/06/04 19:25:42;;;;;;;6.43;1.90;;;22.00;54.80;;;;;;8431123;28;20047;-54
2023/06/04 19:29:44;;;;;;;2.20;1.70;;;22.00;55.60;;;;;;8433680;28;20044;-52
2023/06/04 19:33:45;;;;;;;7.78;2.25;;;22.00;55.80;;;;;;8432313;28;20335;-54
2023/06/04 19:37:45;;;;;;;2.55;1.70;;;22.00;55.60;;;;;;8430699;28;20500;-57
2023/06/04 19:41:49;;;;;;;3.80;1.70;;;22.00;57.40;;;;;;8432852;28;20032;-56
2023/06/04 19:45:50;;;;;;;4.25;2.10;;;22.00;55.50;;;;;;8433113;28;20031;-58
2023/06/04 19:49:51;;;;;;;6.07;1.90;;;22.10;56.40;;;;;;8432545;28;20467;-55
2023/06/04 19:53:52;;;;;;;4.85;1.80;;;22.10;56.00;;;;;;8432650;28;20069;-54
2023/06/04 19:57:55;;;;;;;2.63;1.73;;;22.10;55.80;;;;;;8430404;28;20040;-55
2023/06/04 20:01:55;;;;;;;7.88;2.13;;;22.10;55.70;;;;;;8432943;28;20040;-54
2023/06/04 20:05:56;;;;;;;8.30;2.15;;;22.00;55.90;;;;;;8431576;28;20736;-54
2023/06/04 20:09:57;;;;;;;8.90;3.15;;;22.00;55.70;;;;;;8431570;28;20036;-56
2023/06/04 20:13:57;;;;;;;3.78;1.70;;;22.00;55.60;;;;;;8430752;28;20051;-58
2023/06/04 20:17:58;;;;;;;5.15;1.83;;;22.10;55.20;;;;;;8431405;28;20035;-56
2023/06/04 20:21:59;;;;;;;5.68;1.90;;;22.10;55.90;;;;;;8413602;28;20035;-58
2023/06/04 20:26:00;;;;;;;8.48;2.00;;;22.10;55.40;;;;;;8430702;28;20035;-56
2023/06/04 20:30:00;;;;;;;5.32;1.90;;;22.10;55.20;;;;;;8431521;28;20058;-59
2023/06/04 20:34:01;;;;;;;3.42;2.25;;;22.10;55.30;;;;;;8412065;28;20032;-57
2023/06/04 20:38:02;;;;;;;6.88;2.30;;;22.10;55.30;;;;;;8430414;28;20404;-60
2023/06/04 20:42:03;;;;;;;6.03;2.05;;;22.10;55.30;;;;;;8431938;28;20034;-60
2023/06/04 20:46:04;;;;;;;2.65;2.03;;;22.10;55.40;;;;;;8429654;28;20494;-58
2023/06/04 20:50:05;;;;;;;4.47;1.70;;;22.20;55.40;;;;;;8431745;28;20174;-57
2023/06/04 20:54:06;;;;;;;3.80;1.60;;;22.20;55.30;;;;;;8429595;28;20031;-56
2023/06/04 20:58:06;;;;;;;1.98;1.35;;;22.10;55.30;;;;;;8411536;28;20046;-56
2023/06/04 21:02:07;;;;;;;5.78;1.92;;;22.10;55.30;;;;;;8430264;28;20483;-57